sensor_id;sensor_type;location;lat;lon;timestamp;P1;durP1;ratioP1;P2;durP2;ratioP2
10201;SDS011;5143;42.584;23.164;2024-01-30T00:02:03;4.57;;;2.43;;
10201;SDS011;5143;42.584;23.164;2024-01-30T00:04:30;3.43;;;2.10;;
10201;SDS011;5143;42.584;23.164;2024-01-30T00:06:57;1.83;;;1.60;;
10201;SDS011;5143;42.584;23.164;2024-01-30T00:09:23;3.10;;;1.93;;
10201;SDS011;5143;42.584;23.164;2024-01-30T00:11:50;5.57;;;2.80;;
10201;SDS011;5143;42.584;23.164;2024-01-30T00:14:17;3.30;;;1.97;;
10201;SDS011;5143;42.584;23.164;2024-01-30T00:16:43;5.97;;;2.57;;
10201;SDS011;5143;42.584;23.164;2024-01-30T00:19:11;2.77;;;1.53;;
10201;SDS011;5143;42.584;23.164;2024-01-30T00:21:38;3.77;;;2.10;;
10201;SDS011;5143;42.584;23.164;2024-01-30T00:24:05;2.47;;;1.90;;
10201;SDS011;5143;42.584;23.164;2024-01-30T00:26:32;2.67;;;1.80;;
10201;SDS011;5143;42.584;23.164;2024-01-30T00:28:58;3.00;;;2.10;;
10201;SDS011;5143;42.584;23.164;2024-01-30T00:31:25;2.80;;;1.77;;
10201;SDS011;5143;42.584;23.164;2024-01-30T00:33:52;2.47;;;1.40;;
10201;SDS011;5143;42.584;23.164;2024-01-30T00:36:20;3.67;;;2.10;;
10201;SDS011;5143;42.584;23.164;2024-01-30T00:38:47;3.00;;;2.10;;
10201;SDS011;5143;42.584;23.164;2024-01-30T00:41:13;2.77;;;1.70;;
10201;SDS011;5143;42.584;23.164;2024-01-30T00:43:40;2.73;;;1.63;;
10201;SDS011;5143;42.584;23.164;2024-01-30T00:46:07;3.90;;;2.30;;
10201;SDS011;5143;42.584;23.164;2024-01-30T00:48:34;2.63;;;1.93;;
10201;SDS011;5143;42.584;23.164;2024-01-30T00:51:00;3.27;;;2.47;;
10201;SDS011;5143;42.584;23.164;2024-01-30T00:53:28;3.87;;;2.47;;
10201;SDS011;5143;42.584;23.164;2024-01-30T00:55:55;3.93;;;2.70;;
10201;SDS011;5143;42.584;23.164;2024-01-30T00:58:22;2.73;;;1.90;;
10201;SDS011;5143;42.584;23.164;2024-01-30T01:00:48;3.43;;;2.47;;
10201;SDS011;5143;42.584;23.164;2024-01-30T01:03:15;2.70;;;1.80;;
10201;SDS011;5143;42.584;23.164;2024-01-30T01:05:41;4.20;;;2.43;;
10201;SDS011;5143;42.584;23.164;2024-01-30T01:08:07;3.63;;;2.40;;
10201;SDS011;5143;42.584;23.164;2024-01-30T01:10:36;3.23;;;2.43;;
10201;SDS011;5143;42.584;23.164;2024-01-30T01:13:03;2.67;;;2.00;;
10201;SDS011;5143;42.584;23.164;2024-01-30T01:15:30;3.10;;;2.27;;
10201;SDS011;5143;42.584;23.164;2024-01-30T01:17:56;4.20;;;2.50;;
10201;SDS011;5143;42.584;23.164;2024-01-30T01:20:23;4.17;;;2.37;;
10201;SDS011;5143;42.584;23.164;2024-01-30T01:22:50;2.83;;;1.97;;
10201;SDS011;5143;42.584;23.164;2024-01-30T01:25:17;4.07;;;2.10;;
10201;SDS011;5143;42.584;23.164;2024-01-30T01:27:46;2.80;;;2.17;;
10201;SDS011;5143;42.584;23.164;2024-01-30T01:30:16;2.77;;;2.10;;
10201;SDS011;5143;42.584;23.164;2024-01-30T01:32:46;3.23;;;2.30;;
10201;SDS011;5143;42.584;23.164;2024-01-30T01:35:19;3.43;;;2.03;;
10201;SDS011;5143;42.584;23.164;2024-01-30T01:37:47;3.27;;;2.13;;
10201;SDS011;5143;42.584;23.164;2024-01-30T01:40:19;2.77;;;1.80;;
10201;SDS011;5143;42.584;23.164;2024-01-30T01:42:48;4.17;;;2.47;;
10201;SDS011;5143;42.584;23.164;2024-01-30T01:45:16;3.53;;;2.40;;
10201;SDS011;5143;42.584;23.164;2024-01-30T01:47:43;3.67;;;2.37;;
10201;SDS011;5143;42.584;23.164;2024-01-30T01:50:12;3.70;;;2.53;;
10201;SDS011;5143;42.584;23.164;2024-01-30T01:52:39;4.07;;;2.50;;
10201;SDS011;5143;42.584;23.164;2024-01-30T01:55:07;4.53;;;2.27;;
10201;SDS011;5143;42.584;23.164;2024-01-30T01:57:34;4.00;;;1.63;;
10201;SDS011;5143;42.584;23.164;2024-01-30T02:00:03;3.37;;;2.20;;
10201;SDS011;5143;42.584;23.164;2024-01-30T02:02:30;2.80;;;1.83;;
10201;SDS011;5143;42.584;23.164;2024-01-30T02:05:01;2.57;;;1.93;;
10201;SDS011;5143;42.584;23.164;2024-01-30T02:07:27;3.40;;;1.97;;
10201;SDS011;5143;42.584;23.164;2024-01-30T02:09:54;2.93;;;2.07;;
10201;SDS011;5143;42.584;23.164;2024-01-30T02:12:21;2.57;;;1.87;;
10201;SDS011;5143;42.584;23.164;2024-01-30T02:14:48;2.47;;;2.20;;
10201;SDS011;5143;42.584;23.164;2024-01-30T02:17:16;3.70;;;2.43;;
10201;SDS011;5143;42.584;23.164;2024-01-30T02:19:43;2.50;;;1.53;;
10201;SDS011;5143;42.584;23.164;2024-01-30T02:22:11;2.83;;;1.93;;
10201;SDS011;5143;42.584;23.164;2024-01-30T02:24:39;2.20;;;1.57;;
10201;SDS011;5143;42.584;23.164;2024-01-30T02:27:06;3.10;;;2.10;;
10201;SDS011;5143;42.584;23.164;2024-01-30T02:29:32;2.67;;;1.77;;
10201;SDS011;5143;42.584;23.164;2024-01-30T02:31:59;2.50;;;1.73;;
10201;SDS011;5143;42.584;23.164;2024-01-30T02:34:26;2.27;;;1.80;;
10201;SDS011;5143;42.584;23.164;2024-01-30T02:36:52;2.33;;;1.47;;
10201;SDS011;5143;42.584;23.164;2024-01-30T02:39:20;3.53;;;1.60;;
10201;SDS011;5143;42.584;23.164;2024-01-30T02:41:47;3.30;;;1.80;;
10201;SDS011;5143;42.584;23.164;2024-01-30T02:44:14;2.80;;;1.90;;
10201;SDS011;5143;42.584;23.164;2024-01-30T02:46:41;2.97;;;1.93;;
10201;SDS011;5143;42.584;23.164;2024-01-30T02:49:08;2.47;;;1.60;;
10201;SDS011;5143;42.584;23.164;2024-01-30T02:51:34;2.30;;;1.33;;
10201;SDS011;5143;42.584;23.164;2024-01-30T02:54:01;2.00;;;1.60;;
10201;SDS011;5143;42.584;23.164;2024-01-30T02:56:29;2.40;;;1.53;;
10201;SDS011;5143;42.584;23.164;2024-01-30T02:58:56;1.73;;;1.23;;
10201;SDS011;5143;42.584;23.164;2024-01-30T03:01:22;2.20;;;1.60;;
10201;SDS011;5143;42.584;23.164;2024-01-30T03:03:49;2.37;;;1.60;;
10201;SDS011;5143;42.584;23.164;2024-01-30T03:06:16;2.67;;;1.63;;
10201;SDS011;5143;42.584;23.164;2024-01-30T03:08:45;2.80;;;1.57;;
10201;SDS011;5143;42.584;23.164;2024-01-30T03:11:11;2.83;;;1.83;;
10201;SDS011;5143;42.584;23.164;2024-01-30T03:13:39;3.13;;;1.70;;
10201;SDS011;5143;42.584;23.164;2024-01-30T03:16:08;2.17;;;1.37;;
10201;SDS011;5143;42.584;23.164;2024-01-30T03:18:35;1.90;;;1.30;;
10201;SDS011;5143;42.584;23.164;2024-01-30T03:21:01;4.80;;;1.50;;
10201;SDS011;5143;42.584;23.164;2024-01-30T03:23:28;2.30;;;1.50;;
10201;SDS011;5143;42.584;23.164;2024-01-30T03:25:56;1.80;;;1.57;;
10201;SDS011;5143;42.584;23.164;2024-01-30T03:28:22;3.00;;;1.70;;
10201;SDS011;5143;42.584;23.164;2024-01-30T03:30:50;2.20;;;1.47;;
10201;SDS011;5143;42.584;23.164;2024-01-30T03:33:17;2.70;;;1.80;;
10201;SDS011;5143;42.584;23.164;2024-01-30T03:35:44;3.43;;;1.93;;
10201;SDS011;5143;42.584;23.164;2024-01-30T03:38:10;4.07;;;2.40;;
10201;SDS011;5143;42.584;23.164;2024-01-30T03:40:37;2.90;;;2.10;;
10201;SDS011;5143;42.584;23.164;2024-01-30T03:43:04;2.20;;;1.70;;
10201;SDS011;5143;42.584;23.164;2024-01-30T03:45:31;3.10;;;1.90;;
10201;SDS011;5143;42.584;23.164;2024-01-30T03:47:59;2.73;;;1.93;;
10201;SDS011;5143;42.584;23.164;2024-01-30T03:50:26;3.33;;;2.50;;
10201;SDS011;5143;42.584;23.164;2024-01-30T03:52:53;4.57;;;2.40;;
10201;SDS011;5143;42.584;23.164;2024-01-30T03:55:19;3.37;;;2.40;;
10201;SDS011;5143;42.584;23.164;2024-01-30T03:57:46;3.67;;;2.20;;
10201;SDS011;5143;42.584;23.164;2024-01-30T04:00:14;4.30;;;2.23;;
10201;SDS011;5143;42.584;23.164;2024-01-30T04:02:41;4.93;;;2.50;;
10201;SDS011;5143;42.584;23.164;2024-01-30T04:05:09;3.63;;;2.23;;
10201;SDS011;5143;42.584;23.164;2024-01-30T04:07:36;3.63;;;2.30;;
10201;SDS011;5143;42.584;23.164;2024-01-30T04:10:03;2.97;;;2.07;;
10201;SDS011;5143;42.584;23.164;2024-01-30T04:12:30;2.90;;;2.20;;
10201;SDS011;5143;42.584;23.164;2024-01-30T04:14:57;3.27;;;2.50;;
10201;SDS011;5143;42.584;23.164;2024-01-30T04:17:24;3.97;;;2.30;;
10201;SDS011;5143;42.584;23.164;2024-01-30T04:19:50;3.80;;;2.57;;
10201;SDS011;5143;42.584;23.164;2024-01-30T04:22:18;4.00;;;2.73;;
10201;SDS011;5143;42.584;23.164;2024-01-30T04:24:45;5.20;;;3.10;;
10201;SDS011;5143;42.584;23.164;2024-01-30T04:27:12;7.77;;;3.17;;
10201;SDS011;5143;42.584;23.164;2024-01-30T04:29:39;4.70;;;2.57;;
10201;SDS011;5143;42.584;23.164;2024-01-30T04:32:06;3.00;;;2.13;;
10201;SDS011;5143;42.584;23.164;2024-01-30T04:34:32;3.30;;;2.17;;
10201;SDS011;5143;42.584;23.164;2024-01-30T04:36:59;4.30;;;2.10;;
10201;SDS011;5143;42.584;23.164;2024-01-30T04:39:27;2.27;;;1.83;;
10201;SDS011;5143;42.584;23.164;2024-01-30T04:41:54;6.00;;;3.53;;
10201;SDS011;5143;42.584;23.164;2024-01-30T04:44:20;5.10;;;2.10;;
10201;SDS011;5143;42.584;23.164;2024-01-30T04:46:47;3.67;;;2.30;;
10201;SDS011;5143;42.584;23.164;2024-01-30T04:49:14;3.83;;;2.57;;
10201;SDS011;5143;42.584;23.164;2024-01-30T04:51:40;4.50;;;2.20;;
10201;SDS011;5143;42.584;23.164;2024-01-30T04:54:07;2.57;;;1.90;;
10201;SDS011;5143;42.584;23.164;2024-01-30T04:56:35;3.23;;;2.40;;
10201;SDS011;5143;42.584;23.164;2024-01-30T04:59:02;3.40;;;2.37;;
10201;SDS011;5143;42.584;23.164;2024-01-30T05:01:29;5.27;;;2.93;;
10201;SDS011;5143;42.584;23.164;2024-01-30T05:03:55;8.37;;;2.93;;
10201;SDS011;5143;42.584;23.164;2024-01-30T05:06:25;3.60;;;2.67;;
10201;SDS011;5143;42.584;23.164;2024-01-30T05:08:52;5.60;;;3.20;;
10201;SDS011;5143;42.584;23.164;2024-01-30T05:11:20;4.33;;;2.93;;
10201;SDS011;5143;42.584;23.164;2024-01-30T05:13:48;5.90;;;3.40;;
10201;SDS011;5143;42.584;23.164;2024-01-30T05:16:15;3.43;;;2.43;;
10201;SDS011;5143;42.584;23.164;2024-01-30T05:18:41;3.40;;;2.30;;
10201;SDS011;5143;42.584;23.164;2024-01-30T05:21:08;4.00;;;2.50;;
10201;SDS011;5143;42.584;23.164;2024-01-30T05:23:36;5.00;;;2.67;;
10201;SDS011;5143;42.584;23.164;2024-01-30T05:26:03;3.43;;;2.27;;
10201;SDS011;5143;42.584;23.164;2024-01-30T05:28:29;4.07;;;2.50;;
10201;SDS011;5143;42.584;23.164;2024-01-30T05:30:57;6.57;;;3.37;;
10201;SDS011;5143;42.584;23.164;2024-01-30T05:33:24;4.47;;;2.70;;
10201;SDS011;5143;42.584;23.164;2024-01-30T05:35:51;4.87;;;2.43;;
10201;SDS011;5143;42.584;23.164;2024-01-30T05:38:19;5.20;;;3.30;;
10201;SDS011;5143;42.584;23.164;2024-01-30T05:40:46;5.63;;;3.23;;
10201;SDS011;5143;42.584;23.164;2024-01-30T05:43:12;7.07;;;3.53;;
10201;SDS011;5143;42.584;23.164;2024-01-30T05:45:39;5.30;;;3.50;;
10201;SDS011;5143;42.584;23.164;2024-01-30T05:48:07;6.07;;;3.80;;
10201;SDS011;5143;42.584;23.164;2024-01-30T05:50:34;7.93;;;4.17;;
10201;SDS011;5143;42.584;23.164;2024-01-30T05:53:01;7.90;;;4.10;;
10201;SDS011;5143;42.584;23.164;2024-01-30T05:55:28;5.50;;;3.77;;
10201;SDS011;5143;42.584;23.164;2024-01-30T05:57:54;5.53;;;3.60;;
10201;SDS011;5143;42.584;23.164;2024-01-30T06:00:21;9.40;;;3.27;;
10201;SDS011;5143;42.584;23.164;2024-01-30T06:02:48;6.67;;;4.13;;
10201;SDS011;5143;42.584;23.164;2024-01-30T06:05:16;5.83;;;4.00;;
10201;SDS011;5143;42.584;23.164;2024-01-30T06:07:42;6.20;;;3.40;;
10201;SDS011;5143;42.584;23.164;2024-01-30T06:10:09;6.50;;;3.87;;
10201;SDS011;5143;42.584;23.164;2024-01-30T06:12:36;6.70;;;3.93;;
10201;SDS011;5143;42.584;23.164;2024-01-30T06:15:04;7.30;;;4.50;;
10201;SDS011;5143;42.584;23.164;2024-01-30T06:17:31;7.50;;;4.53;;
10201;SDS011;5143;42.584;23.164;2024-01-30T06:19:58;8.10;;;4.90;;
10201;SDS011;5143;42.584;23.164;2024-01-30T06:22:26;7.43;;;3.80;;
10201;SDS011;5143;42.584;23.164;2024-01-30T06:24:53;6.57;;;4.73;;
10201;SDS011;5143;42.584;23.164;2024-01-30T06:27:20;12.40;;;6.77;;
10201;SDS011;5143;42.584;23.164;2024-01-30T06:29:46;19.70;;;7.00;;
10201;SDS011;5143;42.584;23.164;2024-01-30T06:32:13;14.50;;;7.33;;
10201;SDS011;5143;42.584;23.164;2024-01-30T06:34:40;18.97;;;9.43;;
10201;SDS011;5143;42.584;23.164;2024-01-30T06:37:09;14.40;;;8.03;;
10201;SDS011;5143;42.584;23.164;2024-01-30T06:39:37;15.67;;;8.77;;
10201;SDS011;5143;42.584;23.164;2024-01-30T06:42:04;16.13;;;8.60;;
10201;SDS011;5143;42.584;23.164;2024-01-30T06:44:31;9.57;;;5.97;;
10201;SDS011;5143;42.584;23.164;2024-01-30T06:46:57;10.07;;;5.83;;
10201;SDS011;5143;42.584;23.164;2024-01-30T06:49:24;14.13;;;7.33;;
10201;SDS011;5143;42.584;23.164;2024-01-30T06:51:51;25.00;;;12.67;;
10201;SDS011;5143;42.584;23.164;2024-01-30T06:54:17;23.37;;;12.07;;
10201;SDS011;5143;42.584;23.164;2024-01-30T06:56:45;28.43;;;13.37;;
10201;SDS011;5143;42.584;23.164;2024-01-30T06:59:12;34.73;;;16.03;;
10201;SDS011;5143;42.584;23.164;2024-01-30T07:01:39;33.23;;;17.23;;
10201;SDS011;5143;42.584;23.164;2024-01-30T07:04:05;23.70;;;12.57;;
10201;SDS011;5143;42.584;23.164;2024-01-30T07:06:32;30.50;;;16.03;;
10201;SDS011;5143;42.584;23.164;2024-01-30T07:08:59;19.43;;;11.27;;
10201;SDS011;5143;42.584;23.164;2024-01-30T07:11:25;13.83;;;7.13;;
10201;SDS011;5143;42.584;23.164;2024-01-30T07:13:55;11.30;;;5.93;;
10201;SDS011;5143;42.584;23.164;2024-01-30T07:16:22;13.40;;;8.13;;
10201;SDS011;5143;42.584;23.164;2024-01-30T07:18:48;11.93;;;6.80;;
10201;SDS011;5143;42.584;23.164;2024-01-30T07:21:15;10.87;;;6.70;;
10201;SDS011;5143;42.584;23.164;2024-01-30T07:23:42;10.83;;;6.77;;
10201;SDS011;5143;42.584;23.164;2024-01-30T07:26:09;16.57;;;9.43;;
10201;SDS011;5143;42.584;23.164;2024-01-30T07:28:36;12.20;;;8.03;;
10201;SDS011;5143;42.584;23.164;2024-01-30T07:31:05;10.03;;;6.13;;
10201;SDS011;5143;42.584;23.164;2024-01-30T07:33:31;12.03;;;7.37;;
10201;SDS011;5143;42.584;23.164;2024-01-30T07:35:58;12.40;;;8.50;;
10201;SDS011;5143;42.584;23.164;2024-01-30T07:38:25;16.30;;;8.97;;
10201;SDS011;5143;42.584;23.164;2024-01-30T07:40:51;11.43;;;7.50;;
10201;SDS011;5143;42.584;23.164;2024-01-30T07:43:18;6.47;;;3.93;;
10201;SDS011;5143;42.584;23.164;2024-01-30T07:45:46;7.30;;;4.73;;
10201;SDS011;5143;42.584;23.164;2024-01-30T07:48:14;6.43;;;3.53;;
10201;SDS011;5143;42.584;23.164;2024-01-30T07:50:41;6.07;;;3.30;;
10201;SDS011;5143;42.584;23.164;2024-01-30T07:53:07;29.73;;;15.87;;
10201;SDS011;5143;42.584;23.164;2024-01-30T07:55:34;18.50;;;11.07;;
10201;SDS011;5143;42.584;23.164;2024-01-30T07:58:01;18.53;;;9.73;;
10201;SDS011;5143;42.584;23.164;2024-01-30T08:00:29;8.03;;;4.47;;
10201;SDS011;5143;42.584;23.164;2024-01-30T08:02:56;11.47;;;5.40;;
10201;SDS011;5143;42.584;23.164;2024-01-30T08:05:25;7.03;;;3.53;;
10201;SDS011;5143;42.584;23.164;2024-01-30T08:07:51;3.43;;;2.10;;
10201;SDS011;5143;42.584;23.164;2024-01-30T08:10:18;2.50;;;1.87;;
10201;SDS011;5143;42.584;23.164;2024-01-30T08:12:45;46.73;;;20.23;;
10201;SDS011;5143;42.584;23.164;2024-01-30T08:15:12;4.97;;;3.33;;
10201;SDS011;5143;42.584;23.164;2024-01-30T08:17:39;25.50;;;10.50;;
10201;SDS011;5143;42.584;23.164;2024-01-30T08:20:06;116.53;;;38.20;;
10201;SDS011;5143;42.584;23.164;2024-01-30T08:22:37;17.67;;;7.67;;
10201;SDS011;5143;42.584;23.164;2024-01-30T08:25:05;6.53;;;3.27;;
10201;SDS011;5143;42.584;23.164;2024-01-30T08:27:32;2.87;;;2.13;;
10201;SDS011;5143;42.584;23.164;2024-01-30T08:30:00;3.13;;;2.10;;
10201;SDS011;5143;42.584;23.164;2024-01-30T08:32:27;5.03;;;2.57;;
10201;SDS011;5143;42.584;23.164;2024-01-30T08:34:54;2.97;;;2.20;;
10201;SDS011;5143;42.584;23.164;2024-01-30T08:37:20;3.30;;;1.87;;
10201;SDS011;5143;42.584;23.164;2024-01-30T08:39:49;2.33;;;1.70;;
10201;SDS011;5143;42.584;23.164;2024-01-30T08:42:16;3.63;;;1.73;;
10201;SDS011;5143;42.584;23.164;2024-01-30T08:44:43;2.77;;;1.80;;
10201;SDS011;5143;42.584;23.164;2024-01-30T08:47:10;2.33;;;1.53;;
10201;SDS011;5143;42.584;23.164;2024-01-30T08:49:37;3.57;;;1.70;;
10201;SDS011;5143;42.584;23.164;2024-01-30T08:52:03;2.27;;;1.70;;
10201;SDS011;5143;42.584;23.164;2024-01-30T08:54:31;3.57;;;1.83;;
10201;SDS011;5143;42.584;23.164;2024-01-30T08:57:00;6.13;;;1.67;;
10201;SDS011;5143;42.584;23.164;2024-01-30T08:59:27;2.80;;;1.97;;
10201;SDS011;5143;42.584;23.164;2024-01-30T09:01:54;3.60;;;1.60;;
10201;SDS011;5143;42.584;23.164;2024-01-30T09:04:23;2.50;;;1.60;;
10201;SDS011;5143;42.584;23.164;2024-01-30T09:06:49;3.77;;;1.70;;
10201;SDS011;5143;42.584;23.164;2024-01-30T09:09:16;2.20;;;1.80;;
10201;SDS011;5143;42.584;23.164;2024-01-30T09:11:43;3.03;;;1.47;;
10201;SDS011;5143;42.584;23.164;2024-01-30T09:14:11;2.60;;;1.77;;
10201;SDS011;5143;42.584;23.164;2024-01-30T09:16:38;2.30;;;1.70;;
10201;SDS011;5143;42.584;23.164;2024-01-30T09:19:04;2.53;;;1.80;;
10201;SDS011;5143;42.584;23.164;2024-01-30T09:21:31;2.87;;;1.63;;
10201;SDS011;5143;42.584;23.164;2024-01-30T09:24:01;2.23;;;1.60;;
10201;SDS011;5143;42.584;23.164;2024-01-30T09:26:29;5.67;;;1.70;;
10201;SDS011;5143;42.584;23.164;2024-01-30T09:28:55;2.40;;;1.27;;
10201;SDS011;5143;42.584;23.164;2024-01-30T09:31:23;3.47;;;1.70;;
10201;SDS011;5143;42.584;23.164;2024-01-30T09:33:50;4.73;;;2.13;;
10201;SDS011;5143;42.584;23.164;2024-01-30T09:36:19;2.07;;;1.50;;
10201;SDS011;5143;42.584;23.164;2024-01-30T09:38:46;1.80;;;1.20;;
10201;SDS011;5143;42.584;23.164;2024-01-30T09:41:12;2.17;;;1.20;;
10201;SDS011;5143;42.584;23.164;2024-01-30T09:43:40;2.93;;;1.60;;
10201;SDS011;5143;42.584;23.164;2024-01-30T09:46:13;2.33;;;1.53;;
10201;SDS011;5143;42.584;23.164;2024-01-30T09:48:44;2.93;;;1.70;;
10201;SDS011;5143;42.584;23.164;2024-01-30T09:51:13;2.10;;;1.40;;
10201;SDS011;5143;42.584;23.164;2024-01-30T09:53:41;8.43;;;1.97;;
10201;SDS011;5143;42.584;23.164;2024-01-30T09:56:09;2.63;;;1.90;;
10201;SDS011;5143;42.584;23.164;2024-01-30T09:58:36;5.03;;;2.10;;
10201;SDS011;5143;42.584;23.164;2024-01-30T10:01:04;2.80;;;1.83;;
10201;SDS011;5143;42.584;23.164;2024-01-30T10:03:32;2.50;;;1.97;;
10201;SDS011;5143;42.584;23.164;2024-01-30T10:06:00;2.30;;;1.73;;
10201;SDS011;5143;42.584;23.164;2024-01-30T10:08:27;3.83;;;2.53;;
10201;SDS011;5143;42.584;23.164;2024-01-30T10:10:54;5.13;;;2.10;;
10201;SDS011;5143;42.584;23.164;2024-01-30T10:13:21;3.03;;;2.20;;
10201;SDS011;5143;42.584;23.164;2024-01-30T10:15:48;2.60;;;2.10;;
10201;SDS011;5143;42.584;23.164;2024-01-30T10:18:15;10.50;;;2.20;;
10201;SDS011;5143;42.584;23.164;2024-01-30T10:20:42;6.50;;;2.40;;
10201;SDS011;5143;42.584;23.164;2024-01-30T10:23:10;3.90;;;2.00;;
10201;SDS011;5143;42.584;23.164;2024-01-30T10:25:38;8.30;;;2.10;;
10201;SDS011;5143;42.584;23.164;2024-01-30T10:28:05;3.40;;;2.07;;
10201;SDS011;5143;42.584;23.164;2024-01-30T10:30:32;1.87;;;1.60;;
10201;SDS011;5143;42.584;23.164;2024-01-30T10:32:58;3.33;;;1.97;;
10201;SDS011;5143;42.584;23.164;2024-01-30T10:35:25;4.27;;;2.27;;
10201;SDS011;5143;42.584;23.164;2024-01-30T10:37:52;7.27;;;2.43;;
10201;SDS011;5143;42.584;23.164;2024-01-30T10:40:25;4.20;;;2.20;;
10201;SDS011;5143;42.584;23.164;2024-01-30T10:42:54;3.97;;;2.53;;
10201;SDS011;5143;42.584;23.164;2024-01-30T10:45:22;2.50;;;1.70;;
10201;SDS011;5143;42.584;23.164;2024-01-30T10:47:49;2.83;;;2.03;;
10201;SDS011;5143;42.584;23.164;2024-01-30T10:50:19;3.80;;;2.27;;
10201;SDS011;5143;42.584;23.164;2024-01-30T10:52:46;3.37;;;1.90;;
10201;SDS011;5143;42.584;23.164;2024-01-30T10:55:13;3.87;;;1.90;;
10201;SDS011;5143;42.584;23.164;2024-01-30T10:57:43;3.00;;;1.90;;
10201;SDS011;5143;42.584;23.164;2024-01-30T11:00:11;2.20;;;1.17;;
10201;SDS011;5143;42.584;23.164;2024-01-30T11:02:41;1.73;;;1.17;;
10201;SDS011;5143;42.584;23.164;2024-01-30T11:05:10;2.37;;;1.67;;
10201;SDS011;5143;42.584;23.164;2024-01-30T11:07:38;2.90;;;1.53;;
10201;SDS011;5143;42.584;23.164;2024-01-30T11:10:06;3.10;;;1.80;;
10201;SDS011;5143;42.584;23.164;2024-01-30T11:12:38;2.53;;;1.87;;
10201;SDS011;5143;42.584;23.164;2024-01-30T11:15:13;6.47;;;2.50;;
10201;SDS011;5143;42.584;23.164;2024-01-30T11:17:44;3.10;;;1.73;;
10201;SDS011;5143;42.584;23.164;2024-01-30T11:20:16;4.00;;;2.20;;
10201;SDS011;5143;42.584;23.164;2024-01-30T11:22:48;3.30;;;1.73;;
10201;SDS011;5143;42.584;23.164;2024-01-30T11:25:17;4.47;;;2.30;;
10201;SDS011;5143;42.584;23.164;2024-01-30T11:27:46;4.87;;;2.43;;
10201;SDS011;5143;42.584;23.164;2024-01-30T11:30:23;5.73;;;2.33;;
10201;SDS011;5143;42.584;23.164;2024-01-30T11:35:36;2.60;;;2.03;;
10201;SDS011;5143;42.584;23.164;2024-01-30T11:38:05;14.80;;;3.10;;
10201;SDS011;5143;42.584;23.164;2024-01-30T11:40:33;2.57;;;2.10;;
10201;SDS011;5143;42.584;23.164;2024-01-30T11:43:01;5.93;;;2.80;;
10201;SDS011;5143;42.584;23.164;2024-01-30T11:45:31;3.77;;;1.63;;
10201;SDS011;5143;42.584;23.164;2024-01-30T11:47:58;4.27;;;2.47;;
10201;SDS011;5143;42.584;23.164;2024-01-30T11:50:28;3.00;;;1.83;;
10201;SDS011;5143;42.584;23.164;2024-01-30T11:52:55;4.73;;;1.97;;
10201;SDS011;5143;42.584;23.164;2024-01-30T11:55:23;2.57;;;1.73;;
10201;SDS011;5143;42.584;23.164;2024-01-30T11:57:49;2.37;;;1.87;;
10201;SDS011;5143;42.584;23.164;2024-01-30T12:00:16;4.60;;;2.33;;
10201;SDS011;5143;42.584;23.164;2024-01-30T12:02:48;3.67;;;2.23;;
10201;SDS011;5143;42.584;23.164;2024-01-30T12:05:15;2.40;;;1.77;;
10201;SDS011;5143;42.584;23.164;2024-01-30T12:07:43;2.70;;;1.80;;
10201;SDS011;5143;42.584;23.164;2024-01-30T12:10:10;3.50;;;2.00;;
10201;SDS011;5143;42.584;23.164;2024-01-30T12:12:39;2.60;;;2.23;;
10201;SDS011;5143;42.584;23.164;2024-01-30T12:15:07;4.00;;;1.57;;
10201;SDS011;5143;42.584;23.164;2024-01-30T12:17:34;3.37;;;2.07;;
10201;SDS011;5143;42.584;23.164;2024-01-30T12:20:06;9.33;;;1.80;;
10201;SDS011;5143;42.584;23.164;2024-01-30T12:22:35;3.33;;;1.97;;
10201;SDS011;5143;42.584;23.164;2024-01-30T12:25:04;2.90;;;1.50;;
10201;SDS011;5143;42.584;23.164;2024-01-30T12:27:31;1.43;;;0.93;;
10201;SDS011;5143;42.584;23.164;2024-01-30T12:29:58;3.47;;;1.90;;
10201;SDS011;5143;42.584;23.164;2024-01-30T12:32:24;3.17;;;2.00;;
10201;SDS011;5143;42.584;23.164;2024-01-30T12:34:54;5.47;;;2.30;;
10201;SDS011;5143;42.584;23.164;2024-01-30T12:37:23;2.77;;;1.77;;
10201;SDS011;5143;42.584;23.164;2024-01-30T12:39:51;3.00;;;1.93;;
10201;SDS011;5143;42.584;23.164;2024-01-30T12:42:19;5.53;;;1.83;;
10201;SDS011;5143;42.584;23.164;2024-01-30T12:44:46;8.63;;;1.93;;
10201;SDS011;5143;42.584;23.164;2024-01-30T12:47:14;4.60;;;2.23;;
10201;SDS011;5143;42.584;23.164;2024-01-30T12:49:41;3.27;;;1.83;;
10201;SDS011;5143;42.584;23.164;2024-01-30T12:52:08;3.57;;;2.27;;
10201;SDS011;5143;42.584;23.164;2024-01-30T12:54:36;3.13;;;1.97;;
10201;SDS011;5143;42.584;23.164;2024-01-30T12:57:03;3.10;;;1.40;;
10201;SDS011;5143;42.584;23.164;2024-01-30T12:59:31;3.47;;;2.00;;
10201;SDS011;5143;42.584;23.164;2024-01-30T13:01:59;4.93;;;1.77;;
10201;SDS011;5143;42.584;23.164;2024-01-30T13:04:27;2.50;;;1.60;;
10201;SDS011;5143;42.584;23.164;2024-01-30T13:06:53;3.60;;;1.70;;
10201;SDS011;5143;42.584;23.164;2024-01-30T13:09:20;2.97;;;1.60;;
10201;SDS011;5143;42.584;23.164;2024-01-30T13:11:49;2.50;;;1.53;;
10201;SDS011;5143;42.584;23.164;2024-01-30T13:14:16;3.37;;;1.70;;
10201;SDS011;5143;42.584;23.164;2024-01-30T13:16:42;4.70;;;2.20;;
10201;SDS011;5143;42.584;23.164;2024-01-30T13:19:09;2.30;;;1.63;;
10201;SDS011;5143;42.584;23.164;2024-01-30T13:21:36;8.00;;;2.00;;
10201;SDS011;5143;42.584;23.164;2024-01-30T13:24:03;3.70;;;2.40;;
10201;SDS011;5143;42.584;23.164;2024-01-30T13:26:31;5.10;;;1.73;;
10201;SDS011;5143;42.584;23.164;2024-01-30T13:28:59;3.43;;;2.10;;
10201;SDS011;5143;42.584;23.164;2024-01-30T13:31:26;5.00;;;2.13;;
10201;SDS011;5143;42.584;23.164;2024-01-30T13:33:53;1.67;;;1.23;;
10201;SDS011;5143;42.584;23.164;2024-01-30T13:36:20;2.93;;;1.80;;
10201;SDS011;5143;42.584;23.164;2024-01-30T13:38:47;9.33;;;2.23;;
10201;SDS011;5143;42.584;23.164;2024-01-30T13:41:14;3.53;;;2.17;;
10201;SDS011;5143;42.584;23.164;2024-01-30T13:43:41;3.47;;;2.27;;
10201;SDS011;5143;42.584;23.164;2024-01-30T13:46:10;3.77;;;2.33;;
10201;SDS011;5143;42.584;23.164;2024-01-30T13:48:37;2.77;;;2.20;;
10201;SDS011;5143;42.584;23.164;2024-01-30T13:51:04;3.80;;;2.30;;
10201;SDS011;5143;42.584;23.164;2024-01-30T13:53:31;2.57;;;1.70;;
10201;SDS011;5143;42.584;23.164;2024-01-30T13:55:58;3.03;;;2.13;;
10201;SDS011;5143;42.584;23.164;2024-01-30T13:58:24;4.43;;;1.70;;
10201;SDS011;5143;42.584;23.164;2024-01-30T14:00:52;5.97;;;2.30;;
10201;SDS011;5143;42.584;23.164;2024-01-30T14:03:20;3.33;;;2.10;;
10201;SDS011;5143;42.584;23.164;2024-01-30T14:05:47;4.30;;;2.83;;
10201;SDS011;5143;42.584;23.164;2024-01-30T14:08:14;2.67;;;1.70;;
10201;SDS011;5143;42.584;23.164;2024-01-30T14:10:41;3.53;;;2.40;;
10201;SDS011;5143;42.584;23.164;2024-01-30T14:13:08;3.63;;;2.33;;
10201;SDS011;5143;42.584;23.164;2024-01-30T14:15:36;3.90;;;2.10;;
10201;SDS011;5143;42.584;23.164;2024-01-30T14:18:03;4.20;;;2.57;;
10201;SDS011;5143;42.584;23.164;2024-01-30T14:20:31;3.87;;;2.37;;
10201;SDS011;5143;42.584;23.164;2024-01-30T14:22:58;2.47;;;1.80;;
10201;SDS011;5143;42.584;23.164;2024-01-30T14:25:25;7.70;;;2.63;;
10201;SDS011;5143;42.584;23.164;2024-01-30T14:27:52;2.90;;;2.23;;
10201;SDS011;5143;42.584;23.164;2024-01-30T14:30:19;5.00;;;2.10;;
10201;SDS011;5143;42.584;23.164;2024-01-30T14:32:45;5.80;;;3.20;;
10201;SDS011;5143;42.584;23.164;2024-01-30T14:35:13;2.97;;;1.77;;
10201;SDS011;5143;42.584;23.164;2024-01-30T14:37:41;4.53;;;1.77;;
10201;SDS011;5143;42.584;23.164;2024-01-30T14:40:08;2.47;;;1.60;;
10201;SDS011;5143;42.584;23.164;2024-01-30T14:42:35;3.97;;;2.07;;
10201;SDS011;5143;42.584;23.164;2024-01-30T14:45:02;7.27;;;2.43;;
10201;SDS011;5143;42.584;23.164;2024-01-30T14:47:29;6.67;;;2.27;;
10201;SDS011;5143;42.584;23.164;2024-01-30T14:49:56;5.03;;;2.40;;